sensor_id;sensor_type;location;lat;lon;timestamp;temperature;humidity
16846;DHT22;8539;53.188;8.696;2024-03-07T00:01:09;1.60;99.90
16846;DHT22;8539;53.188;8.696;2024-03-07T00:03:36;1.50;99.90
16846;DHT22;8539;53.188;8.696;2024-03-07T00:06:03;1.50;99.90
16846;DHT22;8539;53.188;8.696;2024-03-07T00:08:30;1.50;99.90
16846;DHT22;8539;53.188;8.696;2024-03-07T00:10:57;1.50;99.90
16846;DHT22;8539;53.188;8.696;2024-03-07T00:13:25;1.50;99.90
16846;DHT22;8539;53.188;8.696;2024-03-07T00:15:52;1.40;99.90
16846;DHT22;8539;53.188;8.696;2024-03-07T00:18:19;1.40;99.90
16846;DHT22;8539;53.188;8.696;2024-03-07T00:20:46;1.50;99.90
16846;DHT22;8539;53.188;8.696;2024-03-07T00:23:14;1.40;99.90
16846;DHT22;8539;53.188;8.696;2024-03-07T00:25:43;1.40;99.90
16846;DHT22;8539;53.188;8.696;2024-03-07T00:28:10;1.40;99.90
16846;DHT22;8539;53.188;8.696;2024-03-07T00:30:37;1.30;99.90
16846;DHT22;8539;53.188;8.696;2024-03-07T00:33:04;1.40;99.90
16846;DHT22;8539;53.188;8.696;2024-03-07T00:35:32;1.30;99.90
16846;DHT22;8539;53.188;8.696;2024-03-07T00:37:59;1.30;99.90
16846;DHT22;8539;53.188;8.696;2024-03-07T00:40:26;1.30;99.90
16846;DHT22;8539;53.188;8.696;2024-03-07T00:42:53;1.30;99.90
16846;DHT22;8539;53.188;8.696;2024-03-07T00:45:20;1.20;99.90
16846;DHT22;8539;53.188;8.696;2024-03-07T00:47:47;1.20;99.90
16846;DHT22;8539;53.188;8.696;2024-03-07T00:50:15;1.20;99.90
16846;DHT22;8539;53.188;8.696;2024-03-07T00:52:42;1.10;99.90
16846;DHT22;8539;53.188;8.696;2024-03-07T00:55:10;1.20;99.90
16846;DHT22;8539;53.188;8.696;2024-03-07T00:57:37;1.10;99.90
16846;DHT22;8539;53.188;8.696;2024-03-07T01:00:04;1.10;99.90
16846;DHT22;8539;53.188;8.696;2024-03-07T01:02:32;1.10;99.90
16846;DHT22;8539;53.188;8.696;2024-03-07T01:05:01;1.10;99.90
16846;DHT22;8539;53.188;8.696;2024-03-07T01:07:34;1.10;99.90
16846;DHT22;8539;53.188;8.696;2024-03-07T01:10:01;1.10;99.90
16846;DHT22;8539;53.188;8.696;2024-03-07T01:12:30;1.10;99.90
16846;DHT22;8539;53.188;8.696;2024-03-07T01:15:01;1.00;99.90
16846;DHT22;8539;53.188;8.696;2024-03-07T01:17:32;1.00;99.90
16846;DHT22;8539;53.188;8.696;2024-03-07T01:20:00;1.00;99.90
16846;DHT22;8539;53.188;8.696;2024-03-07T01:22:30;1.00;99.90
16846;DHT22;8539;53.188;8.696;2024-03-07T01:24:57;1.00;99.90
16846;DHT22;8539;53.188;8.696;2024-03-07T01:27:24;1.00;99.90
16846;DHT22;8539;53.188;8.696;2024-03-07T01:29:52;1.00;99.90
16846;DHT22;8539;53.188;8.696;2024-03-07T01:32:21;0.90;99.90
16846;DHT22;8539;53.188;8.696;2024-03-07T01:34:48;0.90;99.90
16846;DHT22;8539;53.188;8.696;2024-03-07T01:37:15;1.20;99.90
16846;DHT22;8539;53.188;8.696;2024-03-07T01:39:42;0.90;99.90
16846;DHT22;8539;53.188;8.696;2024-03-07T01:42:09;0.90;99.90
16846;DHT22;8539;53.188;8.696;2024-03-07T01:44:36;0.90;99.90
16846;DHT22;8539;53.188;8.696;2024-03-07T01:47:04;0.90;99.90
16846;DHT22;8539;53.188;8.696;2024-03-07T01:49:32;0.90;99.90
16846;DHT22;8539;53.188;8.696;2024-03-07T01:51:59;0.90;99.90
16846;DHT22;8539;53.188;8.696;2024-03-07T01:54:26;1.00;99.90
16846;DHT22;8539;53.188;8.696;2024-03-07T01:56:55;0.90;99.90
16846;DHT22;8539;53.188;8.696;2024-03-07T01:59:22;0.90;99.90
16846;DHT22;8539;53.188;8.696;2024-03-07T02:01:52;0.90;99.90
16846;DHT22;8539;53.188;8.696;2024-03-07T02:04:25;0.90;99.90
16846;DHT22;8539;53.188;8.696;2024-03-07T02:06:53;0.90;99.90
16846;DHT22;8539;53.188;8.696;2024-03-07T02:09:21;0.90;99.90
16846;DHT22;8539;53.188;8.696;2024-03-07T02:11:49;0.90;99.90
16846;DHT22;8539;53.188;8.696;2024-03-07T02:14:16;0.80;99.90
16846;DHT22;8539;53.188;8.696;2024-03-07T02:16:43;0.90;99.90
16846;DHT22;8539;53.188;8.696;2024-03-07T02:19:14;0.80;99.90
16846;DHT22;8539;53.188;8.696;2024-03-07T02:21:41;0.80;99.90
16846;DHT22;8539;53.188;8.696;2024-03-07T02:24:09;0.80;99.90
16846;DHT22;8539;53.188;8.696;2024-03-07T02:26:36;0.80;99.90
16846;DHT22;8539;53.188;8.696;2024-03-07T02:29:03;0.80;99.90
16846;DHT22;8539;53.188;8.696;2024-03-07T02:31:31;0.80;99.90
16846;DHT22;8539;53.188;8.696;2024-03-07T02:34:04;0.80;99.90
16846;DHT22;8539;53.188;8.696;2024-03-07T02:36:31;0.80;99.90
16846;DHT22;8539;53.188;8.696;2024-03-07T02:38:59;0.80;99.90
16846;DHT22;8539;53.188;8.696;2024-03-07T02:41:26;0.80;99.90
16846;DHT22;8539;53.188;8.696;2024-03-07T02:43:53;0.80;99.90
16846;DHT22;8539;53.188;8.696;2024-03-07T02:46:21;0.90;99.90
16846;DHT22;8539;53.188;8.696;2024-03-07T02:48:48;0.90;99.90
16846;DHT22;8539;53.188;8.696;2024-03-07T02:51:15;0.90;99.90
16846;DHT22;8539;53.188;8.696;2024-03-07T02:53:42;1.00;99.90
16846;DHT22;8539;53.188;8.696;2024-03-07T02:56:09;1.00;99.90
16846;DHT22;8539;53.188;8.696;2024-03-07T02:58:37;1.00;99.90
16846;DHT22;8539;53.188;8.696;2024-03-07T03:01:04;1.10;99.90
16846;DHT22;8539;53.188;8.696;2024-03-07T03:03:31;1.10;99.90
16846;DHT22;8539;53.188;8.696;2024-03-07T03:06:01;1.10;99.90
16846;DHT22;8539;53.188;8.696;2024-03-07T03:08:29;1.20;99.90
16846;DHT22;8539;53.188;8.696;2024-03-07T03:10:56;1.20;99.90
16846;DHT22;8539;53.188;8.696;2024-03-07T03:13:24;1.30;99.90
16846;DHT22;8539;53.188;8.696;2024-03-07T03:15:57;1.30;99.90
16846;DHT22;8539;53.188;8.696;2024-03-07T03:18:25;1.30;99.90
16846;DHT22;8539;53.188;8.696;2024-03-07T03:20:52;1.30;99.90
16846;DHT22;8539;53.188;8.696;2024-03-07T03:23:20;1.40;99.90
16846;DHT22;8539;53.188;8.696;2024-03-07T03:25:48;1.40;99.90
16846;DHT22;8539;53.188;8.696;2024-03-07T03:28:17;1.60;99.90
16846;DHT22;8539;53.188;8.696;2024-03-07T03:30:47;1.50;99.90
16846;DHT22;8539;53.188;8.696;2024-03-07T03:33:14;1.50;99.90
16846;DHT22;8539;53.188;8.696;2024-03-07T03:35:42;1.50;99.90
16846;DHT22;8539;53.188;8.696;2024-03-07T03:38:10;1.60;99.90
16846;DHT22;8539;53.188;8.696;2024-03-07T03:40:37;1.60;99.90
16846;DHT22;8539;53.188;8.696;2024-03-07T03:43:05;1.60;99.90
16846;DHT22;8539;53.188;8.696;2024-03-07T03:45:32;1.60;99.90
16846;DHT22;8539;53.188;8.696;2024-03-07T03:48:01;1.60;99.90
16846;DHT22;8539;53.188;8.696;2024-03-07T03:50:29;1.70;99.90
16846;DHT22;8539;53.188;8.696;2024-03-07T03:52:56;1.70;99.90
16846;DHT22;8539;53.188;8.696;2024-03-07T03:55:24;1.70;99.90
16846;DHT22;8539;53.188;8.696;2024-03-07T03:57:51;1.70;99.90
16846;DHT22;8539;53.188;8.696;2024-03-07T04:00:20;1.80;99.90
16846;DHT22;8539;53.188;8.696;2024-03-07T04:02:50;1.80;99.90
16846;DHT22;8539;53.188;8.696;2024-03-07T04:05:19;1.80;99.90
16846;DHT22;8539;53.188;8.696;2024-03-07T04:07:48;1.90;99.90
16846;DHT22;8539;53.188;8.696;2024-03-07T04:10:16;1.90;99.90
16846;DHT22;8539;53.188;8.696;2024-03-07T04:12:44;1.90;99.90
16846;DHT22;8539;53.188;8.696;2024-03-07T04:15:13;2.10;99.90
16846;DHT22;8539;53.188;8.696;2024-03-07T04:17:44;1.90;99.90
16846;DHT22;8539;53.188;8.696;2024-03-07T04:20:13;2.00;99.90
16846;DHT22;8539;53.188;8.696;2024-03-07T04:22:40;2.00;99.90
16846;DHT22;8539;53.188;8.696;2024-03-07T04:25:08;2.00;99.90
16846;DHT22;8539;53.188;8.696;2024-03-07T04:27:36;2.00;99.90
16846;DHT22;8539;53.188;8.696;2024-03-07T04:30:05;2.00;99.90
16846;DHT22;8539;53.188;8.696;2024-03-07T04:32:33;2.00;99.90
16846;DHT22;8539;53.188;8.696;2024-03-07T04:35:01;2.10;99.90
16846;DHT22;8539;53.188;8.696;2024-03-07T04:37:30;2.10;99.90
16846;DHT22;8539;53.188;8.696;2024-03-07T04:39:58;2.10;99.90
16846;DHT22;8539;53.188;8.696;2024-03-07T04:42:26;2.10;99.90
16846;DHT22;8539;53.188;8.696;2024-03-07T04:44:53;2.10;99.90
16846;DHT22;8539;53.188;8.696;2024-03-07T04:47:20;2.10;99.90
16846;DHT22;8539;53.188;8.696;2024-03-07T04:49:47;2.10;99.90
16846;DHT22;8539;53.188;8.696;2024-03-07T04:52:14;2.20;99.90
16846;DHT22;8539;53.188;8.696;2024-03-07T04:54:41;2.10;99.90
16846;DHT22;8539;53.188;8.696;2024-03-07T04:57:08;2.10;99.90
16846;DHT22;8539;53.188;8.696;2024-03-07T04:59:36;2.20;99.90
16846;DHT22;8539;53.188;8.696;2024-03-07T05:02:03;2.20;99.90
16846;DHT22;8539;53.188;8.696;2024-03-07T05:04:30;2.20;99.90
16846;DHT22;8539;53.188;8.696;2024-03-07T05:06:59;2.30;99.90
16846;DHT22;8539;53.188;8.696;2024-03-07T05:09:26;2.20;99.90
16846;DHT22;8539;53.188;8.696;2024-03-07T05:11:56;2.20;99.90
16846;DHT22;8539;53.188;8.696;2024-03-07T05:14:24;2.30;99.90
16846;DHT22;8539;53.188;8.696;2024-03-07T05:16:52;2.30;99.90
16846;DHT22;8539;53.188;8.696;2024-03-07T05:19:37;2.30;99.90
16846;DHT22;8539;53.188;8.696;2024-03-07T05:22:04;2.30;99.90
16846;DHT22;8539;53.188;8.696;2024-03-07T05:24:32;2.30;99.90
16846;DHT22;8539;53.188;8.696;2024-03-07T05:27:01;2.20;99.90
16846;DHT22;8539;53.188;8.696;2024-03-07T05:29:28;2.30;99.90
16846;DHT22;8539;53.188;8.696;2024-03-07T05:31:55;2.20;99.90
16846;DHT22;8539;53.188;8.696;2024-03-07T05:34:42;2.30;99.90
16846;DHT22;8539;53.188;8.696;2024-03-07T05:37:13;2.30;99.90
16846;DHT22;8539;53.188;8.696;2024-03-07T05:39:40;2.30;99.90
16846;DHT22;8539;53.188;8.696;2024-03-07T05:42:07;2.30;99.90
16846;DHT22;8539;53.188;8.696;2024-03-07T05:44:35;2.30;99.90
16846;DHT22;8539;53.188;8.696;2024-03-07T05:47:02;2.30;99.90
16846;DHT22;8539;53.188;8.696;2024-03-07T05:49:31;2.30;99.90
16846;DHT22;8539;53.188;8.696;2024-03-07T05:51:58;2.30;99.90
16846;DHT22;8539;53.188;8.696;2024-03-07T05:54:25;2.30;99.90
16846;DHT22;8539;53.188;8.696;2024-03-07T05:56:53;2.40;99.90
16846;DHT22;8539;53.188;8.696;2024-03-07T05:59:21;2.40;99.90
16846;DHT22;8539;53.188;8.696;2024-03-07T06:01:49;2.40;99.90
16846;DHT22;8539;53.188;8.696;2024-03-07T06:04:17;2.40;99.90
16846;DHT22;8539;53.188;8.696;2024-03-07T06:06:44;2.50;99.90
16846;DHT22;8539;53.188;8.696;2024-03-07T06:09:14;2.50;99.90
16846;DHT22;8539;53.188;8.696;2024-03-07T06:11:41;2.50;99.90
16846;DHT22;8539;53.188;8.696;2024-03-07T06:14:11;2.50;99.90
16846;DHT22;8539;53.188;8.696;2024-03-07T06:16:40;2.50;99.90
16846;DHT22;8539;53.188;8.696;2024-03-07T06:19:08;2.60;99.90
16846;DHT22;8539;53.188;8.696;2024-03-07T06:21:39;2.60;99.90
16846;DHT22;8539;53.188;8.696;2024-03-07T06:24:08;2.60;99.90
16846;DHT22;8539;53.188;8.696;2024-03-07T06:26:38;2.70;99.90
16846;DHT22;8539;53.188;8.696;2024-03-07T06:29:17;2.90;99.90
16846;DHT22;8539;53.188;8.696;2024-03-07T06:31:46;2.70;99.90
16846;DHT22;8539;53.188;8.696;2024-03-07T06:34:14;2.80;99.90
16846;DHT22;8539;53.188;8.696;2024-03-07T06:36:41;2.80;99.90
16846;DHT22;8539;53.188;8.696;2024-03-07T06:39:08;2.80;99.90
16846;DHT22;8539;53.188;8.696;2024-03-07T06:41:38;2.90;99.90
16846;DHT22;8539;53.188;8.696;2024-03-07T06:44:06;2.90;99.90
16846;DHT22;8539;53.188;8.696;2024-03-07T06:46:34;2.90;99.90
16846;DHT22;8539;53.188;8.696;2024-03-07T06:49:02;2.90;99.90
16846;DHT22;8539;53.188;8.696;2024-03-07T06:51:29;3.00;99.90
16846;DHT22;8539;53.188;8.696;2024-03-07T06:53:56;3.00;99.90
16846;DHT22;8539;53.188;8.696;2024-03-07T06:56:24;3.00;99.90
16846;DHT22;8539;53.188;8.696;2024-03-07T06:58:51;3.10;99.90
16846;DHT22;8539;53.188;8.696;2024-03-07T07:01:19;3.10;99.90
16846;DHT22;8539;53.188;8.696;2024-03-07T07:03:47;3.20;99.90
16846;DHT22;8539;53.188;8.696;2024-03-07T07:06:16;3.20;99.90
16846;DHT22;8539;53.188;8.696;2024-03-07T07:08:46;3.20;99.90
16846;DHT22;8539;53.188;8.696;2024-03-07T07:11:13;3.30;99.90
16846;DHT22;8539;53.188;8.696;2024-03-07T07:13:41;3.40;99.90
16846;DHT22;8539;53.188;8.696;2024-03-07T07:16:09;3.30;99.90
16846;DHT22;8539;53.188;8.696;2024-03-07T07:18:37;3.40;99.90
16846;DHT22;8539;53.188;8.696;2024-03-07T07:21:05;3.40;99.90
16846;DHT22;8539;53.188;8.696;2024-03-07T07:23:38;3.40;99.90
16846;DHT22;8539;53.188;8.696;2024-03-07T07:26:06;3.50;99.90
16846;DHT22;8539;53.188;8.696;2024-03-07T07:28:33;3.50;99.90
16846;DHT22;8539;53.188;8.696;2024-03-07T07:31:04;3.60;99.90
16846;DHT22;8539;53.188;8.696;2024-03-07T07:33:32;3.60;99.90
16846;DHT22;8539;53.188;8.696;2024-03-07T07:35:59;3.60;99.90
16846;DHT22;8539;53.188;8.696;2024-03-07T07:38:27;3.70;99.90
16846;DHT22;8539;53.188;8.696;2024-03-07T07:40:54;3.70;99.90
16846;DHT22;8539;53.188;8.696;2024-03-07T07:43:21;3.70;99.90
16846;DHT22;8539;53.188;8.696;2024-03-07T07:46:04;3.70;99.90
16846;DHT22;8539;53.188;8.696;2024-03-07T07:48:31;3.70;99.90
16846;DHT22;8539;53.188;8.696;2024-03-07T07:50:59;3.80;99.90
16846;DHT22;8539;53.188;8.696;2024-03-07T07:53:26;3.80;99.90
16846;DHT22;8539;53.188;8.696;2024-03-07T07:55:54;3.80;99.90
16846;DHT22;8539;53.188;8.696;2024-03-07T07:58:21;3.90;99.90
16846;DHT22;8539;53.188;8.696;2024-03-07T08:00:49;3.90;99.90
16846;DHT22;8539;53.188;8.696;2024-03-07T08:03:16;3.90;99.90
16846;DHT22;8539;53.188;8.696;2024-03-07T08:05:46;3.90;99.90
16846;DHT22;8539;53.188;8.696;2024-03-07T08:08:13;3.90;99.90
16846;DHT22;8539;53.188;8.696;2024-03-07T08:10:43;3.90;99.90
16846;DHT22;8539;53.188;8.696;2024-03-07T08:13:13;4.00;99.90
16846;DHT22;8539;53.188;8.696;2024-03-07T08:15:41;4.10;99.90
16846;DHT22;8539;53.188;8.696;2024-03-07T08:18:08;4.00;99.90
16846;DHT22;8539;53.188;8.696;2024-03-07T08:20:39;4.00;99.90
16846;DHT22;8539;53.188;8.696;2024-03-07T08:23:09;4.00;99.90
16846;DHT22;8539;53.188;8.696;2024-03-07T08:25:37;4.00;99.90
16846;DHT22;8539;53.188;8.696;2024-03-07T08:28:07;4.00;99.90
16846;DHT22;8539;53.188;8.696;2024-03-07T08:30:34;4.10;99.90
16846;DHT22;8539;53.188;8.696;2024-03-07T08:33:04;4.20;99.90
16846;DHT22;8539;53.188;8.696;2024-03-07T08:35:33;4.30;99.90
16846;DHT22;8539;53.188;8.696;2024-03-07T08:38:01;4.40;99.90
16846;DHT22;8539;53.188;8.696;2024-03-07T08:40:29;4.50;99.90
16846;DHT22;8539;53.188;8.696;2024-03-07T08:43:02;4.60;99.90
16846;DHT22;8539;53.188;8.696;2024-03-07T08:45:30;4.60;99.90
16846;DHT22;8539;53.188;8.696;2024-03-07T08:48:02;4.50;99.90
16846;DHT22;8539;53.188;8.696;2024-03-07T08:50:36;4.50;99.90
16846;DHT22;8539;53.188;8.696;2024-03-07T08:53:06;4.40;99.90
16846;DHT22;8539;53.188;8.696;2024-03-07T08:55:34;4.40;99.90
16846;DHT22;8539;53.188;8.696;2024-03-07T08:58:03;4.40;99.90
16846;DHT22;8539;53.188;8.696;2024-03-07T09:00:34;4.30;99.90
16846;DHT22;8539;53.188;8.696;2024-03-07T09:03:05;4.30;99.90
16846;DHT22;8539;53.188;8.696;2024-03-07T09:05:37;4.30;99.90
16846;DHT22;8539;53.188;8.696;2024-03-07T09:08:06;4.30;99.90
16846;DHT22;8539;53.188;8.696;2024-03-07T09:10:34;4.30;99.90
16846;DHT22;8539;53.188;8.696;2024-03-07T09:13:01;4.30;99.90
16846;DHT22;8539;53.188;8.696;2024-03-07T09:15:29;4.30;99.90
16846;DHT22;8539;53.188;8.696;2024-03-07T09:17:56;4.30;99.90
16846;DHT22;8539;53.188;8.696;2024-03-07T09:20:25;4.30;99.90
16846;DHT22;8539;53.188;8.696;2024-03-07T09:22:53;4.30;99.90
16846;DHT22;8539;53.188;8.696;2024-03-07T09:25:23;4.40;99.90
16846;DHT22;8539;53.188;8.696;2024-03-07T09:27:52;4.50;99.90
16846;DHT22;8539;53.188;8.696;2024-03-07T09:30:21;4.60;99.90
16846;DHT22;8539;53.188;8.696;2024-03-07T09:32:54;4.50;99.90
16846;DHT22;8539;53.188;8.696;2024-03-07T09:35:24;4.50;99.90
16846;DHT22;8539;53.188;8.696;2024-03-07T09:37:51;4.50;99.90
16846;DHT22;8539;53.188;8.696;2024-03-07T09:40:19;4.60;99.90
16846;DHT22;8539;53.188;8.696;2024-03-07T09:42:52;4.70;99.90
16846;DHT22;8539;53.188;8.696;2024-03-07T09:45:23;4.80;99.90
16846;DHT22;8539;53.188;8.696;2024-03-07T09:47:54;4.90;99.90
16846;DHT22;8539;53.188;8.696;2024-03-07T09:50:22;5.00;99.90
16846;DHT22;8539;53.188;8.696;2024-03-07T09:52:52;5.00;99.90
16846;DHT22;8539;53.188;8.696;2024-03-07T09:55:22;5.10;99.90
16846;DHT22;8539;53.188;8.696;2024-03-07T09:57:53;5.20;99.90
16846;DHT22;8539;53.188;8.696;2024-03-07T10:00:23;5.40;99.90
16846;DHT22;8539;53.188;8.696;2024-03-07T10:03:02;5.50;99.90
16846;DHT22;8539;53.188;8.696;2024-03-07T10:05:32;5.60;99.90
16846;DHT22;8539;53.188;8.696;2024-03-07T10:08:00;5.50;99.90
16846;DHT22;8539;53.188;8.696;2024-03-07T10:10:29;5.50;99.90
16846;DHT22;8539;53.188;8.696;2024-03-07T10:12:58;5.50;99.90
16846;DHT22;8539;53.188;8.696;2024-03-07T10:15:30;5.50;99.90
16846;DHT22;8539;53.188;8.696;2024-03-07T10:17:58;5.50;99.90
16846;DHT22;8539;53.188;8.696;2024-03-07T10:20:27;5.50;99.90
16846;DHT22;8539;53.188;8.696;2024-03-07T10:22:54;5.60;99.90
16846;DHT22;8539;53.188;8.696;2024-03-07T10:25:23;5.60;99.90
16846;DHT22;8539;53.188;8.696;2024-03-07T10:27:53;5.50;99.90
16846;DHT22;8539;53.188;8.696;2024-03-07T10:30:21;5.50;99.90
16846;DHT22;8539;53.188;8.696;2024-03-07T10:32:58;5.50;99.90
16846;DHT22;8539;53.188;8.696;2024-03-07T10:35:28;5.60;99.90
16846;DHT22;8539;53.188;8.696;2024-03-07T10:37:57;5.70;99.90
16846;DHT22;8539;53.188;8.696;2024-03-07T10:40:29;5.80;99.90
16846;DHT22;8539;53.188;8.696;2024-03-07T10:42:58;5.80;99.90
16846;DHT22;8539;53.188;8.696;2024-03-07T10:45:30;5.70;99.90
16846;DHT22;8539;53.188;8.696;2024-03-07T10:48:03;5.60;99.90
16846;DHT22;8539;53.188;8.696;2024-03-07T11:01:31;5.90;99.90
16846;DHT22;8539;53.188;8.696;2024-03-07T11:04:01;5.90;99.90
16846;DHT22;8539;53.188;8.696;2024-03-07T11:06:33;5.90;99.90
16846;DHT22;8539;53.188;8.696;2024-03-07T11:09:03;5.90;99.90
16846;DHT22;8539;53.188;8.696;2024-03-07T11:11:41;5.90;99.90
16846;DHT22;8539;53.188;8.696;2024-03-07T11:14:11;5.90;99.90
16846;DHT22;8539;53.188;8.696;2024-03-07T11:16:40;5.90;99.90
16846;DHT22;8539;53.188;8.696;2024-03-07T11:19:27;5.90;99.90
16846;DHT22;8539;53.188;8.696;2024-03-07T11:21:56;5.90;99.90
16846;DHT22;8539;53.188;8.696;2024-03-07T11:24:27;5.90;99.90
16846;DHT22;8539;53.188;8.696;2024-03-07T11:27:03;5.90;99.90
16846;DHT22;8539;53.188;8.696;2024-03-07T11:32:13;5.90;99.90
16846;DHT22;8539;53.188;8.696;2024-03-07T11:34:42;5.90;99.90
16846;DHT22;8539;53.188;8.696;2024-03-07T11:37:21;6.00;99.90
16846;DHT22;8539;53.188;8.696;2024-03-07T11:40:04;5.90;99.90
16846;DHT22;8539;53.188;8.696;2024-03-07T11:42:48;5.90;99.90
16846;DHT22;8539;53.188;8.696;2024-03-07T11:45:18;6.00;99.90
16846;DHT22;8539;53.188;8.696;2024-03-07T11:47:52;6.00;99.90
16846;DHT22;8539;53.188;8.696;2024-03-07T11:50:29;6.10;99.90
16846;DHT22;8539;53.188;8.696;2024-03-07T11:52:56;6.10;99.90
16846;DHT22;8539;53.188;8.696;2024-03-07T11:55:23;6.10;99.90
16846;DHT22;8539;53.188;8.696;2024-03-07T11:57:51;6.10;99.90
16846;DHT22;8539;53.188;8.696;2024-03-07T12:00:19;6.20;99.90
16846;DHT22;8539;53.188;8.696;2024-03-07T12:02:47;6.30;99.90
16846;DHT22;8539;53.188;8.696;2024-03-07T12:05:16;6.50;99.90
16846;DHT22;8539;53.188;8.696;2024-03-07T12:07:44;6.40;99.90
16846;DHT22;8539;53.188;8.696;2024-03-07T12:10:11;6.20;99.90
16846;DHT22;8539;53.188;8.696;2024-03-07T12:12:38;6.30;99.90
16846;DHT22;8539;53.188;8.696;2024-03-07T12:15:07;6.30;99.90
16846;DHT22;8539;53.188;8.696;2024-03-07T12:17:47;6.20;99.90
16846;DHT22;8539;53.188;8.696;2024-03-07T12:20:18;6.10;99.90
16846;DHT22;8539;53.188;8.696;2024-03-07T12:23:01;5.90;99.90
16846;DHT22;8539;53.188;8.696;2024-03-07T12:25:30;5.70;99.90
16846;DHT22;8539;53.188;8.696;2024-03-07T12:28:06;5.70;99.90
16846;DHT22;8539;53.188;8.696;2024-03-07T12:33:20;5.70;99.90
16846;DHT22;8539;53.188;8.696;2024-03-07T12:35:49;5.70;99.90
16846;DHT22;8539;53.188;8.696;2024-03-07T12:38:18;5.60;99.90
16846;DHT22;8539;53.188;8.696;2024-03-07T12:40:46;5.60;99.90
16846;DHT22;8539;53.188;8.696;2024-03-07T12:43:20;5.70;99.90
16846;DHT22;8539;53.188;8.696;2024-03-07T12:45:49;5.40;99.90
16846;DHT22;8539;53.188;8.696;2024-03-07T12:48:17;5.30;99.90
16846;DHT22;8539;53.188;8.696;2024-03-07T12:50:46;5.30;99.90
16846;DHT22;8539;53.188;8.696;2024-03-07T12:53:14;5.20;99.90
16846;DHT22;8539;53.188;8.696;2024-03-07T12:55:41;5.30;99.90
16846;DHT22;8539;53.188;8.696;2024-03-07T12:58:09;5.40;99.90
16846;DHT22;8539;53.188;8.696;2024-03-07T13:00:40;5.40;99.90
16846;DHT22;8539;53.188;8.696;2024-03-07T13:03:10;5.50;99.90
16846;DHT22;8539;53.188;8.696;2024-03-07T13:05:37;5.60;99.90
16846;DHT22;8539;53.188;8.696;2024-03-07T13:08:08;5.70;99.90
16846;DHT22;8539;53.188;8.696;2024-03-07T13:10:41;5.80;99.90
16846;DHT22;8539;53.188;8.696;2024-03-07T13:13:09;5.80;99.90
16846;DHT22;8539;53.188;8.696;2024-03-07T13:15:38;5.80;99.90
16846;DHT22;8539;53.188;8.696;2024-03-07T13:18:06;5.70;99.90
16846;DHT22;8539;53.188;8.696;2024-03-07T13:20:34;5.80;99.90
16846;DHT22;8539;53.188;8.696;2024-03-07T13:23:02;5.80;99.90
16846;DHT22;8539;53.188;8.696;2024-03-07T13:25:29;5.70;99.90
16846;DHT22;8539;53.188;8.696;2024-03-07T13:28:09;5.70;99.90
16846;DHT22;8539;53.188;8.696;2024-03-07T13:30:44;5.70;99.90
16846;DHT22;8539;53.188;8.696;2024-03-07T13:33:16;5.70;99.90
16846;DHT22;8539;53.188;8.696;2024-03-07T13:35:44;5.60;99.90
16846;DHT22;8539;53.188;8.696;2024-03-07T13:38:11;5.50;99.90
16846;DHT22;8539;53.188;8.696;2024-03-07T13:40:40;5.50;99.90
16846;DHT22;8539;53.188;8.696;2024-03-07T13:43:08;5.30;99.90
16846;DHT22;8539;53.188;8.696;2024-03-07T13:45:36;5.20;99.90
16846;DHT22;8539;53.188;8.696;2024-03-07T13:48:07;5.20;99.90
16846;DHT22;8539;53.188;8.696;2024-03-07T13:50:36;5.10;99.90
16846;DHT22;8539;53.188;8.696;2024-03-07T13:53:26;5.10;99.90
16846;DHT22;8539;53.188;8.696;2024-03-07T14:12:15;5.00;99.90
16846;DHT22;8539;53.188;8.696;2024-03-07T14:24:28;5.00;99.90
16846;DHT22;8539;53.188;8.696;2024-03-07T14:33:00;4.90;99.90
16846;DHT22;8539;53.188;8.696;2024-03-07T14:41:11;4.90;99.90
16846;DHT22;8539;53.188;8.696;2024-03-07T14:43:40;4.90;99.90
16846;DHT22;8539;53.188;8.696;2024-03-07T14:46:11;4.80;99.90
16846;DHT22;8539;53.188;8.696;2024-03-07T14:48:40;4.90;99.90
16846;DHT22;8539;53.188;8.696;2024-03-07T14:51:08;4.80;99.90
16846;DHT22;8539;53.188;8.696;2024-03-07T14:53:36;4.80;99.90
16846;DHT22;8539;53.188;8.696;2024-03-07T14:56:04;4.70;99.90
16846;DHT22;8539;53.188;8.696;2024-03-07T14:58:32;4.70;99.90
16846;DHT22;8539;53.188;8.696;2024-03-07T15:00:59;4.70;99.90
16846;DHT22;8539;53.188;8.696;2024-03-07T15:03:27;4.70;99.90
16846;DHT22;8539;53.188;8.696;2024-03-07T15:05:58;4.70;99.90
16846;DHT22;8539;53.188;8.696;2024-03-07T15:08:26;4.70;99.90
16846;DHT22;8539;53.188;8.696;2024-03-07T15:10:59;4.60;99.90
16846;DHT22;8539;53.188;8.696;2024-03-07T15:13:30;4.60;99.90
16846;DHT22;8539;53.188;8.696;2024-03-07T15:15:57;4.60;99.90
16846;DHT22;8539;53.188;8.696;2024-03-07T15:18:26;4.60;99.90
16846;DHT22;8539;53.188;8.696;2024-03-07T15:20:55;4.70;99.90
16846;DHT22;8539;53.188;8.696;2024-03-07T15:23:22;4.80;99.90
16846;DHT22;8539;53.188;8.696;2024-03-07T15:25:49;4.80;99.90
16846;DHT22;8539;53.188;8.696;2024-03-07T15:28:16;5.00;99.90
16846;DHT22;8539;53.188;8.696;2024-03-07T15:30:43;4.80;99.90
16846;DHT22;8539;53.188;8.696;2024-03-07T15:33:10;4.90;99.90
16846;DHT22;8539;53.188;8.696;2024-03-07T15:35:37;4.90;99.90
16846;DHT22;8539;53.188;8.696;2024-03-07T15:38:05;4.90;99.90
16846;DHT22;8539;53.188;8.696;2024-03-07T15:40:33;4.90;99.90
16846;DHT22;8539;53.188;8.696;2024-03-07T15:43:01;5.00;99.90
16846;DHT22;8539;53.188;8.696;2024-03-07T15:45:29;5.00;99.90
16846;DHT22;8539;53.188;8.696;2024-03-07T15:47:58;5.00;99.90
16846;DHT22;8539;53.188;8.696;2024-03-07T15:50:26;5.10;99.90
16846;DHT22;8539;53.188;8.696;2024-03-07T15:52:58;5.10;99.90
16846;DHT22;8539;53.188;8.696;2024-03-07T15:55:28;5.10;99.90
16846;DHT22;8539;53.188;8.696;2024-03-07T15:57:56;5.20;99.90
16846;DHT22;8539;53.188;8.696;2024-03-07T16:00:26;5.20;99.90
16846;DHT22;8539;53.188;8.696;2024-03-07T16:02:59;5.20;99.90
16846;DHT22;8539;53.188;8.696;2024-03-07T16:05:31;5.20;99.90
16846;DHT22;8539;53.188;8.696;2024-03-07T16:07:59;5.20;99.90
16846;DHT22;8539;53.188;8.696;2024-03-07T16:10:29;5.20;99.90
16846;DHT22;8539;53.188;8.696;2024-03-07T16:13:00;5.20;99.90
16846;DHT22;8539;53.188;8.696;2024-03-07T16:15:28;5.20;99.90
16846;DHT22;8539;53.188;8.696;2024-03-07T16:18:08;5.20;99.90
16846;DHT22;8539;53.188;8.696;2024-03-07T16:20:39;5.20;99.90
16846;DHT22;8539;53.188;8.696;2024-03-07T16:23:06;5.20;99.90
16846;DHT22;8539;53.188;8.696;2024-03-07T16:25:35;5.10;99.90
16846;DHT22;8539;53.188;8.696;2024-03-07T16:28:08;5.20;99.90
16846;DHT22;8539;53.188;8.696;2024-03-07T16:30:39;5.20;99.90
16846;DHT22;8539;53.188;8.696;2024-03-07T16:33:11;5.20;99.90
16846;DHT22;8539;53.188;8.696;2024-03-07T16:35:39;5.10;99.90
16846;DHT22;8539;53.188;8.696;2024-03-07T16:38:06;5.20;99.90
16846;DHT22;8539;53.188;8.696;2024-03-07T16:40:36;5.20;99.90
16846;DHT22;8539;53.188;8.696;2024-03-07T16:43:09;5.00;99.90
16846;DHT22;8539;53.188;8.696;2024-03-07T16:45:40;5.20;99.90
16846;DHT22;8539;53.188;8.696;2024-03-07T16:48:07;5.20;99.90
16846;DHT22;8539;53.188;8.696;2024-03-07T16:50:38;5.10;99.90
16846;DHT22;8539;53.188;8.696;2024-03-07T16:53:10;5.10;99.90
16846;DHT22;8539;53.188;8.696;2024-03-07T16:55:40;5.10;99.90
16846;DHT22;8539;53.188;8.696;2024-03-07T16:58:10;5.10;99.90
16846;DHT22;8539;53.188;8.696;2024-03-07T17:00:42;4.90;99.90
16846;DHT22;8539;53.188;8.696;2024-03-07T17:03:11;4.90;99.90
16846;DHT22;8539;53.188;8.696;2024-03-07T17:05:41;4.80;99.90
16846;DHT22;8539;53.188;8.696;2024-03-07T17:08:11;4.70;99.90